Nelda Faye — WCX5150 — position and weather

sailwx.info

Track history (hours):
 
Tides and Currents Weather Stations Pressure Air Temp Water Temp Dewpoint Dewpoint Depression Visibility Wind Speed Wind Dir Waves Ship Positions

Nelda Faye

Owner: TARA CROSBY INC, GOLDEN MEADOW, LA. More information available from US FCC via Universal Licensing System and Coast Guard Vessel Documentation Center.

Last reported at 2017-Sep-19 17:44 UTC. Time now 2017-Sep-20 00:20 UTC.
Position N 29°43' W 095°15'.

Length 21 m; draft 2.5 m.

Type: Towing. MMSI: 367028910.

Date/timePositionNaut miles runAvg speedWind from/ knotsBaromVisibWave heightAir tempDewpointWater temp
2017-Sep-19 17:44N 29°43' W 095°15'0 0.0
2017-Sep-19 17:29N 29°43' W 095°15'0 0.0
2017-Sep-19 16:56N 29°43' W 095°15'0 0.0
2017-Sep-19 16:29N 29°43' W 095°15'0 0.0
2017-Sep-19 15:56N 29°43' W 095°15'0 0.0
2017-Sep-19 06:02N 29°43' W 095°15'0 0.0
2017-Sep-19 05:20N 29°43' W 095°15'0 0.0
2017-Sep-19 04:56N 29°43' W 095°15'0 0.0
2017-Sep-19 04:26N 29°43' W 095°15'0 0.0
2017-Sep-19 03:56N 29°43' W 095°15'0 0.0
2017-Sep-19 03:23N 29°43' W 095°15'0 0.0
2017-Sep-19 02:59N 29°43' W 095°15'0 0.0
2017-Sep-19 02:29N 29°43' W 095°15'0 0.0
2017-Sep-19 01:59N 29°43' W 095°15'0 0.0
2017-Sep-19 01:26N 29°43' W 095°15'0 0.0
2017-Sep-19 00:56N 29°43' W 095°15'0 0.0
2017-Sep-19 00:29N 29°43' W 095°15'0 0.0
2017-Sep-18 23:59N 29°43' W 095°15'0 0.0
2017-Sep-18 23:26N 29°43' W 095°15'0 0.0
2017-Sep-18 22:44N 29°43' W 095°15'0 0.0
2017-Sep-18 22:26N 29°43' W 095°15'0 0.1
2017-Sep-18 22:00N 29°43' W 095°15'2 4.9
2017-Sep-18 21:30N 29°44' W 095°12'3 5.3
2017-Sep-18 20:57N 29°44' W 095°09'3 5.3
2017-Sep-18 20:24N 29°45' W 095°06'2 0.8
2017-Sep-18 18:30N 29°47' W 095°06'1 3.0
2017-Sep-18 18:00N 29°45' W 095°06'1 0.3
2017-Sep-18 16:30N 29°46' W 095°06'  
2017-Sep-15 23:12N 29°47' W 095°06'1 0.1
2017-Sep-15 12:55N 29°46' W 095°06'1 0.4
2017-Sep-15 09:15N 29°47' W 095°05'1 3.2
2017-Sep-15 09:00N 29°46' W 095°05'3 5.6
2017-Sep-15 08:27N 29°44' W 095°02'2 5.6
2017-Sep-15 08:00N 29°42' W 095°00'3 6.3
2017-Sep-15 07:30N 29°39' W 094°58'3 6.2
2017-Sep-15 07:00N 29°36' W 094°57'3 6.3
2017-Sep-15 06:30N 29°34' W 094°55'3 6.8
2017-Sep-15 06:00N 29°31' W 094°53'  
Track history (hours):
 
Tides and Currents Weather Stations Pressure Air Temp Water Temp Dewpoint Dewpoint Depression Visibility Wind Speed Wind Dir Waves Ship Positions

Nelda Faye

Owner: TARA CROSBY INC, GOLDEN MEADOW, LA. More information available from US FCC via Universal Licensing System and Coast Guard Vessel Documentation Center.

Last reported at 2017-Sep-19 17:44 UTC. Time now 2017-Sep-20 00:20 UTC.
Position N 29°43' W 095°15'.

Length 21 m; draft 2.5 m.

Type: Towing. MMSI: 367028910.

Date/timePositionNaut miles runAvg speedWind from/ knotsBaromVisibWave heightAir tempDewpointWater temp
2017-Sep-19 17:44N 29°43' W 095°15'0 0.0
2017-Sep-19 17:29N 29°43' W 095°15'0 0.0
2017-Sep-19 16:56N 29°43' W 095°15'0 0.0
2017-Sep-19 16:29N 29°43' W 095°15'0 0.0
2017-Sep-19 15:56N 29°43' W 095°15'0 0.0
2017-Sep-19 06:02N 29°43' W 095°15'0 0.0
2017-Sep-19 05:20N 29°43' W 095°15'0 0.0
2017-Sep-19 04:56N 29°43' W 095°15'0 0.0
2017-Sep-19 04:26N 29°43' W 095°15'0 0.0
2017-Sep-19 03:56N 29°43' W 095°15'0 0.0
2017-Sep-19 03:23N 29°43' W 095°15'0 0.0
2017-Sep-19 02:59N 29°43' W 095°15'0 0.0
2017-Sep-19 02:29N 29°43' W 095°15'0 0.0
2017-Sep-19 01:59N 29°43' W 095°15'0 0.0
2017-Sep-19 01:26N 29°43' W 095°15'0 0.0
2017-Sep-19 00:56N 29°43' W 095°15'0 0.0
2017-Sep-19 00:29N 29°43' W 095°15'0 0.0
2017-Sep-18 23:59N 29°43' W 095°15'0 0.0
2017-Sep-18 23:26N 29°43' W 095°15'0 0.0
2017-Sep-18 22:44N 29°43' W 095°15'0 0.0
2017-Sep-18 22:26N 29°43' W 095°15'0 0.1
2017-Sep-18 22:00N 29°43' W 095°15'2 4.9
2017-Sep-18 21:30N 29°44' W 095°12'3 5.3
2017-Sep-18 20:57N 29°44' W 095°09'3 5.3
2017-Sep-18 20:24N 29°45' W 095°06'2 0.8
2017-Sep-18 18:30N 29°47' W 095°06'1 3.0
2017-Sep-18 18:00N 29°45' W 095°06'1 0.3
2017-Sep-18 16:30N 29°46' W 095°06'  
2017-Sep-15 23:12N 29°47' W 095°06'1 0.1
2017-Sep-15 12:55N 29°46' W 095°06'1 0.4
2017-Sep-15 09:15N 29°47' W 095°05'1 3.2
2017-Sep-15 09:00N 29°46' W 095°05'3 5.6
2017-Sep-15 08:27N 29°44' W 095°02'2 5.6
2017-Sep-15 08:00N 29°42' W 095°00'3 6.3
2017-Sep-15 07:30N 29°39' W 094°58'3 6.2
2017-Sep-15 07:00N 29°36' W 094°57'3 6.3
2017-Sep-15 06:30N 29°34' W 094°55'3 6.8
2017-Sep-15 06:00N 29°31' W 094°53'  

Dump ship's entire track history